ADDS METAR Data INFO
IDs: Format: Raw Decoded Include TAF

Data at: 0934 UTC 17 Oct 2017

KDVK 170915Z AUTO 00000KT 10SM CLR 03/03 A3035 RMK AO2
KDVK 170855Z AUTO 00000KT 10SM CLR 03/03 A3034 RMK AO2
KDVK 170835Z AUTO 00000KT 10SM CLR 03/03 A3034 RMK AO2
KDVK 170815Z AUTO 00000KT 10SM CLR 03/03 A3033 RMK AO2
KDVK 170755Z AUTO 00000KT 10SM CLR 03/03 A3033 RMK AO2
KDVK 170735Z AUTO 00000KT 10SM CLR 03/03 A3034 RMK AO2
KDVK 170715Z AUTO 00000KT 10SM CLR 03/03 A3034 RMK AO2
KDVK 170655Z AUTO 00000KT 10SM CLR 04/03 A3033 RMK AO2
KDVK 170635Z AUTO 00000KT 10SM CLR 04/03 A3034 RMK AO2
KDVK 170615Z AUTO 00000KT 10SM CLR 04/03 A3033 RMK AO2
KDVK 170555Z AUTO 00000KT 10SM CLR 05/04 A3033 RMK AO2
KDVK 170535Z AUTO 00000KT 10SM CLR 05/04 A3033 RMK AO2
KDVK 170515Z AUTO 00000KT 10SM CLR 05/04 A3033 RMK AO2
KDVK 170455Z AUTO 00000KT 10SM CLR 05/05 A3033 RMK AO2
KDVK 170435Z AUTO 00000KT 10SM CLR 05/05 A3033 RMK AO2
KDVK 170415Z AUTO 00000KT 10SM CLR 05/05 A3033 RMK AO2
KDVK 170355Z AUTO 00000KT 10SM CLR 05/04 A3034 RMK AO2
KDVK 170335Z AUTO 00000KT 10SM CLR 05/05 A3034 RMK AO2
KDVK 170315Z AUTO 00000KT 10SM CLR 06/05 A3034 RMK AO2
KDVK 170255Z AUTO 00000KT 10SM CLR 06/05 A3034 RMK AO2
KDVK 170235Z AUTO 00000KT 10SM CLR 06/05 A3034 RMK AO2
KDVK 170215Z AUTO 00000KT 10SM CLR 06/05 A3033 RMK AO2
KDVK 170155Z AUTO 00000KT 10SM CLR 07/05 A3033 RMK AO2
KDVK 170135Z AUTO 00000KT 10SM CLR 07/05 A3033 RMK AO2
KDVK 170115Z AUTO 00000KT 10SM CLR 08/06 A3032 RMK AO2
KDVK 170055Z AUTO 00000KT 10SM CLR 08/06 A3032 RMK AO2
KDVK 170035Z AUTO 00000KT 10SM CLR 08/06 A3032 RMK AO2
KDVK 170015Z AUTO 00000KT 10SM CLR 08/05 A3031 RMK AO2
KDVK 162355Z AUTO 00000KT 10SM CLR 09/05 A3030 RMK AO2
KDVK 162335Z AUTO 00000KT 10SM CLR 10/05 A3030 RMK AO2
KDVK 162315Z AUTO 00000KT 10SM CLR 10/05 A3030 RMK AO2
KDVK 162255Z AUTO 00000KT 10SM SCT050 12/05 A3030 RMK AO2
KDVK 162235Z AUTO 02003KT 10SM CLR 13/04 A3030 RMK AO2
KDVK 162215Z AUTO 03005KT 10SM SCT050 13/04 A3030 RMK AO2
KDVK 162155Z AUTO 04007KT 10SM SCT050 15/03 A3029 RMK AO2
KDVK 162135Z AUTO 04004KT 10SM SCT050 15/04 A3029 RMK AO2
KDVK 162115Z AUTO 03008KT 10SM BKN050 16/05 A3029 RMK AO2
KDVK 162055Z AUTO 36008KT 10SM SCT050 16/04 A3029 RMK AO2
KDVK 162035Z AUTO 02003KT 10SM SCT050 13/05 A3030 RMK AO2
KDVK 162015Z AUTO 06004KT 10SM OVC048 15/05 A3030 RMK AO2
KDVK 161955Z AUTO 01006KT 10SM BKN050 16/04 A3029 RMK AO2
KDVK 161935Z AUTO 02003KT 10SM SCT050 13/04 A3030 RMK AO2
KDVK 161915Z AUTO 02003KT 10SM BKN050 15/04 A3030 RMK AO2
KDVK 161855Z AUTO 01008KT 10SM BKN050 15/04 A3030 RMK AO2
KDVK 161835Z AUTO 03009KT 10SM SCT048 15/05 A3031 RMK AO2
KDVK 161815Z AUTO 04007KT 10SM SCT042 SCT047 SCT055 14/05 A3032 RMK AO2
KDVK 161755Z AUTO 05005KT 10SM SCT042 SCT047 SCT055 15/05 A3033 RMK AO2
KDVK 161735Z AUTO 02008KT 10SM BKN040 BKN046 14/05 A3034 RMK AO2
KDVK 161715Z AUTO 01007KT 10SM SCT037 BKN045 14/05 A3034 RMK AO2
KDVK 161655Z AUTO 36008KT 10SM BKN035 BKN043 BKN049 13/05 A3034 RMK AO2
KDVK 161635Z AUTO 03006KT 10SM BKN035 OVC041 14/05 A3035 RMK AO2
KDVK 161615Z AUTO 04008KT 10SM SCT033 BKN040 BKN046 13/05 A3035 RMK AO2
KDVK 161555Z AUTO 03008KT 10SM SCT026 SCT043 14/06 A3035 RMK AO2
KDVK 161535Z AUTO 03009KT 10SM BKN026 BKN032 BKN042 13/06 A3034 RMK AO2
KDVK 161515Z AUTO 02009KT 10SM SCT022 BKN029 BKN042 12/07 A3035 RMK AO2
KDVK 161455Z AUTO 35011KT 10SM BKN020 12/07 A3034 RMK AO2
KDVK 161435Z AUTO 03007KT 10SM BKN016 12/07 A3033 RMK AO2
KDVK 161415Z AUTO 02007KT 10SM BKN014 10/07 A3033 RMK AO2
KDVK 161355Z AUTO 02009KT 10SM SCT014 11/07 A3033 RMK AO2
KDVK 161335Z AUTO 01008KT 10SM CLR 10/07 A3032 RMK AO2
KDVK 161315Z AUTO 36007KT 10SM CLR 09/07 A3032 RMK AO2
KDVK 161255Z AUTO 35007KT 10SM CLR 08/06 A3031 RMK AO2
KDVK 161235Z AUTO 35005KT 10SM CLR 07/06 A3030 RMK AO2
KDVK 161215Z AUTO 35004KT 10SM CLR 07/06 A3029 RMK AO2
KDVK 161155Z AUTO 34003KT 10SM CLR 06/05 A3028 RMK AO2
KDVK 161135Z AUTO 00000KT 10SM CLR 06/05 A3028 RMK AO2
KDVK 161115Z AUTO 34003KT 10SM CLR 07/06 A3027 RMK AO2
KDVK 161055Z AUTO 34003KT 10SM CLR 07/06 A3027 RMK AO2
KDVK 161035Z AUTO 36005KT 10SM BKN042 08/06 A3026 RMK AO2
KDVK 161015Z AUTO 35006KT 10SM OVC042 09/06 A3026 RMK AO2
KDVK 160955Z AUTO 35005KT 10SM SCT033 OVC040 10/06 A3025 RMK AO2
KDVK 160935Z AUTO 34005KT 10SM SCT032 OVC040 10/06 A3025 RMK AO2
KDVK 160915Z AUTO 35006KT 10SM OVC040 10/06 A3025 RMK AO2
KDVK 160855Z AUTO 34006KT 10SM OVC040 10/06 A3025 RMK AO2
KDVK 160835Z AUTO 33006KT 10SM OVC040 10/06 A3024 RMK AO2
KDVK 160815Z AUTO 33005KT 10SM OVC038 10/06 A3024 RMK AO2
KDVK 160755Z AUTO 33005KT 10SM OVC038 10/05 A3024 RMK AO2
KDVK 160735Z AUTO 33004KT 10SM OVC038 10/06 A3024 RMK AO2
KDVK 160715Z AUTO 32004KT 10SM OVC038 10/05 A3024 RMK AO2
KDVK 160655Z AUTO 33004KT 10SM OVC036 10/06 A3024 RMK AO2
KDVK 160635Z AUTO 33003KT 10SM OVC036 10/06 A3024 RMK AO2
KDVK 160615Z AUTO 32003KT 10SM OVC036 10/06 A3024 RMK AO2
KDVK 160555Z AUTO 34004KT 10SM OVC036 10/06 A3023 RMK AO2
KDVK 160535Z AUTO 36005KT 10SM BKN029 OVC034 10/06 A3024 RMK AO2
KDVK 160515Z AUTO 35004KT 10SM OVC029 10/06 A3024 RMK AO2
KDVK 160455Z AUTO 01006KT 10SM OVC029 10/05 A3025 RMK AO2
KDVK 160435Z AUTO 02010KT 10SM OVC029 10/05 A3025 RMK AO2
KDVK 160415Z AUTO 01006KT 10SM OVC029 11/05 A3025 RMK AO2
KDVK 160355Z AUTO 01009KT 10SM OVC027 11/06 A3024 RMK AO2
KDVK 160335Z AUTO 01008KT 10SM OVC025 11/07 A3024 RMK AO2
KDVK 160315Z AUTO 35006KT 10SM OVC025 11/07 A3023 RMK AO2
KDVK 160255Z AUTO 35007KT 10SM OVC023 11/07 A3023 RMK AO2
KDVK 160235Z AUTO 34008KT 10SM OVC023 11/07 A3022 RMK AO2
KDVK 160215Z AUTO 33008KT 10SM OVC023 11/07 A3021 RMK AO2
KDVK 160155Z AUTO 33008KT 10SM OVC023 11/07 A3020 RMK AO2
KDVK 160135Z AUTO 34010G15KT 10SM OVC021 12/07 A3019 RMK AO2
KDVK 160115Z AUTO 33008G16KT 10SM OVC019 12/08 A3018 RMK AO2
KDVK 160055Z AUTO 35008KT 10SM OVC019 12/09 A3016 RMK AO2
KDVK 160035Z AUTO 36009G17KT 10SM OVC019 12/09 A3015 RMK AO2
KDVK 160015Z AUTO 34012G18KT 10SM BKN013 OVC019 12/10 A3015 RMK AO2
KDVK 152355Z AUTO 32008KT 10SM OVC011 13/11 A3013 RMK AO2
KDVK 152335Z AUTO 34007KT 10SM OVC009 13/12 A3011 RMK AO2
KDVK 152315Z AUTO 35013G22KT 10SM BKN009 OVC012 13/12 A3010 RMK AO2
KDVK 152255Z AUTO 32009G17KT 10SM BKN011 OVC050 15/13 A3008 RMK AO2
KDVK 152235Z AUTO 32009G16KT 10SM SCT032 OVC050 15/13 A3007 RMK AO2
KDVK 152215Z AUTO 32007KT 10SM -DZ SCT011 BKN032 OVC041 15/13 A3006 RMK AO2
KDVK 152155Z AUTO 33009G18KT 7SM -DZ SCT011 BKN029 OVC044 15/13 A3006 RMK AO2
KDVK 152135Z AUTO 32013G24KT 7SM DZ SCT015 OVC026 15/13 A3006 RMK AO2